Time;durP1;ratioP1;P1;durP2;ratioP2;P2;SDS_P1;SDS_P2;PMS_P1;PMS_P2;Temp;Humidity;BMP_temperature;BMP_pressure;BME280_temperature;BME280_humidity;BME280_pressure;Samples;Min_cycle;Max_cycle;Signal;HPM_P1;HPM_P2
2022/06/22 00:00:39;;;;;;;17.37;12.17;;;16.70;99.90;;;;;;5036259;28;20673;-81
2022/06/22 00:03:09;;;;;;;15.00;10.90;;;16.60;99.90;;;;;;5050753;28;20696;-82
2022/06/22 00:05:49;;;;;;;18.13;12.20;;;16.60;99.90;;;;;;5035810;28;20613;-82
2022/06/22 00:08:20;;;;;;;14.33;11.97;;;16.50;99.90;;;;;;5036908;28;20220;-83
2022/06/22 00:10:56;;;;;;;17.63;12.40;;;16.40;99.90;;;;;;5051276;28;21094;-82
2022/06/22 00:13:28;;;;;;;21.33;12.63;;;16.30;99.90;;;;;;5028670;28;20217;-82
2022/06/22 00:16:04;;;;;;;21.20;13.40;;;16.20;99.90;;;;;;5028310;28;20708;-83
2022/06/22 00:18:39;;;;;;;18.67;12.80;;;16.20;99.90;;;;;;5034486;28;20829;-82
2022/06/22 00:21:33;;;;;;;16.37;12.63;;;16.10;99.90;;;;;;5027531;28;20735;-82
2022/06/22 00:24:23;;;;;;;20.47;12.27;;;16.10;99.90;;;;;;5028201;28;20214;-83
2022/06/22 00:27:07;;;;;;;16.93;13.23;;;16.00;99.90;;;;;;5039026;28;20231;-82
2022/06/22 00:29:36;;;;;;;18.27;12.43;;;16.00;99.90;;;;;;5038309;28;20217;-82
2022/06/22 00:32:16;;;;;;;16.87;11.97;;;15.90;99.90;;;;;;5041168;28;20198;-83
2022/06/22 00:34:43;;;;;;;20.13;12.50;;;15.90;99.90;;;;;;5041345;28;20202;-82
2022/06/22 00:37:15;;;;;;;17.27;12.87;;;15.80;99.90;;;;;;5042281;28;20213;-82
2022/06/22 00:39:50;;;;;;;22.77;14.50;;;15.80;99.90;;;;;;5044252;28;20243;-82
2022/06/22 00:42:24;;;;;;;18.90;13.57;;;15.80;99.90;;;;;;5043768;28;20613;-83
2022/06/22 00:44:57;;;;;;;20.43;14.00;;;15.70;99.90;;;;;;5040606;28;20220;-83
2022/06/22 00:47:30;;;;;;;21.37;13.03;;;15.70;99.90;;;;;;5040798;28;20210;-83
2022/06/22 00:50:20;;;;;;;25.47;14.50;;;15.50;99.90;;;;;;5044099;28;20614;-82
2022/06/22 00:53:01;;;;;;;20.07;13.83;;;15.60;99.90;;;;;;5041044;28;20206;-83
2022/06/22 00:55:48;;;;;;;18.50;14.03;;;15.50;99.90;;;;;;5044496;28;20739;-83
2022/06/22 00:58:44;;;;;;;24.07;14.07;;;15.50;99.90;;;;;;5043227;28;20544;-82
2022/06/22 01:01:22;;;;;;;19.00;13.47;;;15.40;99.90;;;;;;5037989;28;20613;-81
2022/06/22 01:04:00;;;;;;;20.17;13.87;;;15.40;99.90;;;;;;5044163;28;20240;-82
2022/06/22 01:06:44;;;;;;;21.47;13.80;;;15.40;99.90;;;;;;5047282;28;20236;-83
2022/06/22 01:09:14;;;;;;;22.37;14.27;;;15.30;99.90;;;;;;5052847;28;20323;-83
2022/06/22 01:15:00;;;;;;;19.47;13.43;;;15.30;99.90;;;;;;5050805;28;20206;-83
2022/06/22 01:17:37;;;;;;;23.80;14.10;;;15.20;99.90;;;;;;5047675;28;20232;-82
2022/06/22 01:20:14;;;;;;;21.27;14.73;;;15.20;99.90;;;;;;5054493;28;20210;-82
2022/06/22 01:23:04;;;;;;;23.27;14.63;;;15.20;99.90;;;;;;5051037;28;20288;-83
2022/06/22 01:25:49;;;;;;;18.00;13.57;;;15.20;99.90;;;;;;5051778;28;20260;-83
2022/06/22 01:28:17;;;;;;;24.97;15.07;;;15.10;99.90;;;;;;5034725;28;20201;-81
2022/06/22 01:30:51;;;;;;;26.07;15.63;;;15.10;99.90;;;;;;5032576;28;20684;-82
2022/06/22 01:33:33;;;;;;;21.37;16.57;;;15.00;99.90;;;;;;5044566;28;20210;-83
2022/06/22 01:36:12;;;;;;;24.20;14.13;;;14.90;99.90;;;;;;5055633;28;20228;-80
2022/06/22 01:38:41;;;;;;;24.03;15.40;;;14.90;99.90;;;;;;5045542;28;20236;-83
2022/06/22 01:41:36;;;;;;;25.47;15.97;;;14.80;99.90;;;;;;5058429;28;20320;-82
2022/06/22 01:44:20;;;;;;;24.43;16.00;;;14.80;99.90;;;;;;5054518;28;20308;-82
2022/06/22 01:46:50;;;;;;;25.43;16.80;;;14.70;99.90;;;;;;5057707;28;20743;-79
2022/06/22 01:49:31;;;;;;;24.33;16.03;;;14.60;99.90;;;;;;5049284;28;20256;-81
2022/06/22 01:52:35;;;;;;;34.70;16.63;;;14.60;99.90;;;;;;5059702;28;20337;-82
2022/06/22 01:55:21;;;;;;;20.20;16.10;;;14.50;99.90;;;;;;5046217;28;20228;-82
2022/06/22 01:58:03;;;;;;;23.63;16.13;;;14.50;99.90;;;;;;5040857;28;20263;-82
2022/06/22 02:00:30;;;;;;;23.57;16.70;;;14.40;99.90;;;;;;5031067;28;20271;-81
2022/06/22 02:03:13;;;;;;;22.93;15.60;;;14.40;99.90;;;;;;5040190;28;20245;-83
2022/06/22 02:06:01;;;;;;;17.87;13.37;;;14.40;99.90;;;;;;5043943;28;20244;-82
2022/06/22 02:08:34;;;;;;;22.93;15.40;;;14.40;99.90;;;;;;5041860;28;20205;-82
2022/06/22 02:11:07;;;;;;;22.37;15.00;;;14.30;99.90;;;;;;5055716;28;20292;-83
2022/06/22 02:13:41;;;;;;;22.93;15.17;;;14.30;99.90;;;;;;5045798;28;20213;-82
2022/06/22 02:16:19;;;;;;;20.63;14.80;;;14.20;99.90;;;;;;5041750;28;20224;-82
2022/06/22 02:18:53;;;;;;;25.17;14.67;;;14.10;99.90;;;;;;5041339;28;20330;-82
2022/06/22 02:21:23;;;;;;;22.43;13.47;;;14.10;99.90;;;;;;5041785;28;20357;-82
2022/06/22 02:23:55;;;;;;;20.40;14.67;;;14.10;99.90;;;;;;5040020;28;20216;-81
2022/06/22 02:26:28;;;;;;;24.60;15.23;;;14.00;99.90;;;;;;5038456;28;20241;-81
2022/06/22 02:28:55;;;;;;;27.43;15.17;;;14.00;99.90;;;;;;5042122;28;20209;-83
2022/06/22 02:31:23;;;;;;;21.43;14.57;;;14.00;99.90;;;;;;5042366;28;20213;-82
2022/06/22 02:33:55;;;;;;;22.80;14.93;;;13.90;99.90;;;;;;5037926;28;20274;-83
2022/06/22 02:36:25;;;;;;;21.70;15.43;;;13.90;99.90;;;;;;5038281;28;20216;-82
2022/06/22 02:38:52;;;;;;;20.63;13.60;;;13.90;99.90;;;;;;5038318;28;20205;-82
2022/06/22 02:44:29;;;;;;;21.33;15.07;;;13.90;99.90;;;;;;5038158;28;20677;-82
2022/06/22 02:47:12;;;;;;;19.77;13.67;;;13.80;99.90;;;;;;5038127;28;20232;-81
2022/06/22 02:49:44;;;;;;;22.13;13.90;;;13.80;99.90;;;;;;5038926;28;20383;-83
2022/06/22 02:52:13;;;;;;;21.43;14.57;;;13.80;99.90;;;;;;5038426;28;20282;-82
2022/06/22 02:54:46;;;;;;;27.13;15.77;;;13.70;99.90;;;;;;5040139;28;20515;-80
2022/06/22 02:57:25;;;;;;;21.40;14.13;;;13.70;99.90;;;;;;5039928;28;20216;-81
2022/06/22 02:59:52;;;;;;;19.83;14.93;;;13.60;99.90;;;;;;5038395;28;20272;-81
2022/06/22 03:02:23;;;;;;;19.67;14.40;;;13.60;99.90;;;;;;5041678;28;20212;-80
2022/06/22 03:04:51;;;;;;;21.73;15.00;;;13.60;99.90;;;;;;5034535;28;20731;-82
2022/06/22 03:07:21;;;;;;;17.90;14.03;;;13.60;99.90;;;;;;5041066;28;20238;-81
2022/06/22 03:09:49;;;;;;;19.07;14.20;;;13.50;99.90;;;;;;5035487;28;20219;-82
2022/06/22 03:12:16;;;;;;;24.17;16.53;;;13.50;99.90;;;;;;5039937;28;20216;-81
2022/06/22 03:14:46;;;;;;;25.30;14.33;;;13.40;99.90;;;;;;5034143;28;20635;-80
2022/06/22 03:17:16;;;;;;;24.03;15.30;;;13.40;99.90;;;;;;5037782;28;20208;-81
2022/06/22 03:19:48;;;;;;;21.57;13.73;;;13.40;99.90;;;;;;5041741;28;20235;-82
2022/06/22 03:22:30;;;;;;;21.23;15.27;;;13.40;99.90;;;;;;5040484;28;20220;-80
2022/06/22 03:25:18;;;;;;;23.20;15.63;;;13.30;99.90;;;;;;5041111;28;20215;-84
2022/06/22 03:27:58;;;;;;;23.60;14.50;;;13.30;99.90;;;;;;5041887;28;20272;-82
2022/06/22 03:30:29;;;;;;;21.20;15.03;;;13.30;99.90;;;;;;5040788;28;20215;-83
2022/06/22 03:33:03;;;;;;;24.47;15.47;;;13.30;99.90;;;;;;5038363;28;20204;-82
2022/06/22 03:35:44;;;;;;;18.90;13.50;;;13.20;99.90;;;;;;5041618;28;20278;-83
2022/06/22 03:38:19;;;;;;;23.97;16.07;;;13.20;99.90;;;;;;5038536;28;20218;-83
2022/06/22 03:40:56;;;;;;;21.97;14.90;;;13.20;99.90;;;;;;5039155;28;20209;-82
2022/06/22 03:43:31;;;;;;;21.90;14.97;;;13.20;99.90;;;;;;5037869;28;20544;-84
2022/06/22 03:46:01;;;;;;;25.03;15.93;;;13.20;99.90;;;;;;5040833;28;20751;-83
2022/06/22 03:48:38;;;;;;;24.27;15.07;;;13.20;99.90;;;;;;5037289;28;20242;-82
2022/06/22 03:51:28;;;;;;;23.23;14.97;;;13.20;99.90;;;;;;5039226;28;20212;-83
2022/06/22 03:54:07;;;;;;;22.07;15.70;;;13.20;99.90;;;;;;5038077;28;20272;-82
2022/06/22 03:56:40;;;;;;;26.70;16.00;;;13.20;99.90;;;;;;5041515;28;20310;-84
2022/06/22 03:59:08;;;;;;;24.50;16.43;;;13.20;99.90;;;;;;5041245;28;20257;-82
2022/06/22 04:01:36;;;;;;;23.20;15.23;;;13.20;99.90;;;;;;5044059;28;20208;-83
2022/06/22 04:04:03;;;;;;;21.63;14.17;;;13.20;99.90;;;;;;5037429;28;20324;-83
2022/06/22 04:06:35;;;;;;;21.97;15.67;;;13.20;99.90;;;;;;5034655;28;20236;-83
2022/06/22 04:09:13;;;;;;;26.13;16.80;;;13.20;99.90;;;;;;5039607;28;20227;-83
2022/06/22 04:12:14;;;;;;;18.57;14.50;;;13.30;99.90;;;;;;5044143;28;20591;-86
2022/06/22 04:15:17;;;;;;;22.10;14.77;;;13.30;99.90;;;;;;5041367;28;20694;-84
2022/06/22 04:17:51;;;;;;;27.10;15.67;;;13.40;99.90;;;;;;5042771;28;20274;-83
2022/06/22 04:20:52;;;;;;;24.87;16.37;;;13.40;99.90;;;;;;5039668;28;20673;-84
2022/06/22 04:23:29;;;;;;;20.40;14.70;;;13.40;99.90;;;;;;5045465;28;20231;-83
2022/06/22 04:26:28;;;;;;;23.33;15.37;;;13.40;99.90;;;;;;5039970;28;20381;-83
2022/06/22 04:29:19;;;;;;;21.63;15.70;;;13.50;99.90;;;;;;5039559;28;20223;-83
2022/06/22 04:32:00;;;;;;;28.60;15.37;;;13.60;99.90;;;;;;5035479;28;20216;-83
2022/06/22 04:34:43;;;;;;;30.00;16.40;;;13.60;99.90;;;;;;5038705;28;20252;-83
2022/06/22 04:37:32;;;;;;;21.80;14.70;;;13.60;99.90;;;;;;5041868;28;20571;-83
2022/06/22 04:40:17;;;;;;;24.83;16.03;;;13.70;99.90;;;;;;5040580;28;20687;-84
2022/06/22 04:42:45;;;;;;;24.47;15.43;;;13.70;99.90;;;;;;5038837;28;20225;-83
2022/06/22 04:45:34;;;;;;;23.67;15.50;;;13.80;99.90;;;;;;5039121;28;20213;-84
2022/06/22 04:48:35;;;;;;;25.07;14.53;;;13.80;99.90;;;;;;5041381;28;20253;-84
2022/06/22 04:51:04;;;;;;;24.30;15.43;;;13.90;99.90;;;;;;5046718;28;20224;-83
2022/06/22 04:53:42;;;;;;;21.43;14.50;;;13.90;99.90;;;;;;5075616;28;20220;-82
2022/06/22 04:56:28;;;;;;;25.23;15.43;;;14.00;99.90;;;;;;5043417;28;20208;-83
2022/06/22 04:58:56;;;;;;;24.20;15.77;;;14.00;99.90;;;;;;5054626;28;20247;-83
2022/06/22 05:01:33;;;;;;;27.17;15.83;;;14.00;99.90;;;;;;5055477;28;20202;-83
2022/06/22 05:04:26;;;;;;;23.87;16.23;;;14.10;99.90;;;;;;5024180;28;1062059;-85
2022/06/22 05:07:05;;;;;;;26.47;16.37;;;14.10;99.90;;;;;;5056909;28;20233;-81
2022/06/22 05:09:40;;;;;;;24.77;14.70;;;14.20;99.90;;;;;;5057217;28;20212;-84
2022/06/22 05:12:41;;;;;;;22.43;15.13;;;14.30;99.90;;;;;;5052460;28;20211;-84
2022/06/22 05:15:17;;;;;;;22.13;15.37;;;14.30;99.90;;;;;;5050587;28;20204;-82
2022/06/22 05:17:44;;;;;;;24.40;15.33;;;14.40;99.90;;;;;;5045055;28;20607;-84
2022/06/22 05:20:25;;;;;;;23.97;15.67;;;14.40;99.90;;;;;;5041502;28;20774;-83
2022/06/22 05:22:57;;;;;;;24.80;14.33;;;14.50;99.90;;;;;;5043497;28;20205;-83
2022/06/22 05:25:24;;;;;;;20.60;15.20;;;14.70;99.90;;;;;;5039717;28;20209;-84
2022/06/22 05:28:00;;;;;;;17.33;12.50;;;15.30;99.90;;;;;;5039728;28;20241;-83
2022/06/22 05:30:35;;;;;;;16.27;12.17;;;16.40;99.90;;;;;;5043231;28;20200;-83
2022/06/22 05:33:13;;;;;;;14.55;9.90;;;17.80;99.90;;;;;;5041907;28;20209;-83
2022/06/22 05:35:48;;;;;;;15.35;10.90;;;19.30;99.90;;;;;;5031435;28;20213;-80
2022/06/22 05:38:18;;;;;;;16.67;9.93;;;20.70;99.90;;;;;;5031001;28;20245;-83
2022/06/22 05:40:47;;;;;;;10.55;8.95;;;21.90;99.90;;;;;;5030879;28;20210;-83
2022/06/22 05:43:14;;;;;;;11.30;9.07;;;22.80;99.90;;;;;;5030993;28;20520;-83
2022/06/22 05:45:47;;;;;;;10.15;8.85;;;23.80;99.90;;;;;;5030763;28;20446;-82
2022/06/22 05:48:19;;;;;;;12.13;8.57;;;24.60;99.90;;;;;;5030462;28;20230;-84
2022/06/22 05:51:01;;;;;;;11.98;8.52;;;25.30;99.90;;;;;;5038584;28;20202;-84
2022/06/22 05:53:38;;;;;;;11.18;8.43;;;25.90;99.90;;;;;;5038645;28;20670;-82
2022/06/22 05:56:28;;;;;;;9.38;8.13;;;26.40;99.90;;;;;;5038984;28;20237;-83
2022/06/22 05:58:59;;;;;;;9.20;8.18;;;27.00;99.90;;;;;;5034483;28;20214;-82
2022/06/22 06:02:05;;;;;;;9.75;8.15;;;27.40;99.90;;;;;;5042790;28;20574;-83
2022/06/22 06:04:57;;;;;;;10.18;8.85;;;27.90;99.90;;;;;;5037129;28;20313;-82
2022/06/22 06:07:41;;;;;;;9.98;7.78;;;28.30;99.90;;;;;;5036781;28;20221;-82
2022/06/22 06:10:20;;;;;;;9.23;7.15;;;28.70;99.90;;;;;;5040611;28;20255;-79
2022/06/22 06:13:31;;;;;;;8.75;7.18;;;28.70;98.60;;;;;;5034116;28;20651;-83
2022/06/22 06:16:00;;;;;;;11.45;7.30;;;;;;;;;;5041299;28;20202;-83
2022/06/22 06:18:37;;;;;;;9.80;7.97;;;29.50;97.20;;;;;;5041218;28;20274;-81
2022/06/22 06:21:13;;;;;;;9.60;7.00;;;29.90;96.20;;;;;;5040805;28;20275;-82
2022/06/22 06:23:52;;;;;;;7.53;5.93;;;29.90;94.80;;;;;;5039016;28;20213;-83
2022/06/22 06:29:52;;;;;;;8.38;6.03;;;30.30;93.10;;;;;;5038642;28;20252;-82
2022/06/22 06:32:36;;;;;;;8.57;6.20;;;30.30;92.40;;;;;;5038704;28;20210;-81
2022/06/22 06:35:08;;;;;;;8.20;6.85;;;30.60;92.10;;;;;;5038295;28;20291;-81
2022/06/22 06:37:35;;;;;;;7.30;5.70;;;30.70;91.50;;;;;;5037815;28;20217;-83
2022/06/22 06:40:02;;;;;;;7.60;6.68;;;30.70;91.30;;;;;;5036742;28;20573;-81
2022/06/22 06:42:41;;;;;;;7.78;6.68;;;30.70;91.40;;;;;;5040440;28;20677;-81
2022/06/22 06:45:15;;;;;;;8.25;6.60;;;30.90;90.80;;;;;;5040226;28;20267;-80
2022/06/22 06:47:48;;;;;;;6.93;6.22;;;31.10;90.10;;;;;;5037022;28;20225;-82
2022/06/22 06:50:27;;;;;;;8.75;5.82;;;30.90;90.00;;;;;;5038946;28;20260;-82
2022/06/22 06:53:00;;;;;;;8.95;6.60;;;30.90;89.40;;;;;;5039170;28;20254;-82
2022/06/22 06:55:50;;;;;;;7.65;5.95;;;31.10;88.70;;;;;;5038290;28;20271;-82
2022/06/22 06:58:30;;;;;;;6.85;4.97;;;31.10;87.70;;;;;;5036735;28;20224;-81
2022/06/22 07:00:58;;;;;;;6.88;6.18;;;31.20;87.60;;;;;;5041015;28;20197;-81
2022/06/22 07:03:32;;;;;;;8.77;5.60;;;31.20;87.40;;;;;;5071072;28;20704;-83
2022/06/22 07:06:02;;;;;;;10.55;5.50;;;31.10;86.30;;;;;;5038478;28;20198;-82
2022/06/22 07:08:40;;;;;;;6.10;4.88;;;30.90;85.50;;;;;;5068321;28;20264;-82
2022/06/22 07:11:31;;;;;;;5.50;5.00;;;30.90;84.90;;;;;;5038310;28;20666;-82
2022/06/22 07:14:10;;;;;;;8.93;5.65;;;30.90;84.40;;;;;;5040202;28;20221;-82
2022/06/22 07:16:37;;;;;;;8.40;4.72;;;30.30;84.20;;;;;;5040166;28;20205;-81
2022/06/22 07:19:13;;;;;;;6.07;5.30;;;30.00;86.30;;;;;;5035596;28;20308;-81
2022/06/22 07:21:53;;;;;;;5.53;4.63;;;30.20;86.00;;;;;;5039465;28;20208;-82
2022/06/22 07:24:37;;;;;;;6.97;5.13;;;30.30;85.10;;;;;;5037070;28;20209;-81
2022/06/22 07:27:39;;;;;;;5.93;4.30;;;30.10;86.40;;;;;;5036332;28;20229;-81
2022/06/22 07:30:08;;;;;;;5.82;4.72;;;30.50;85.00;;;;;;5037248;28;20454;-81
2022/06/22 07:32:41;;;;;;;6.80;5.03;;;30.70;85.00;;;;;;5041078;28;20611;-81
2022/06/22 07:35:28;;;;;;;5.82;4.90;;;30.80;84.50;;;;;;5037105;28;20284;-81
2022/06/22 07:38:07;;;;;;;7.05;4.70;;;30.90;83.90;;;;;;5038106;28;20202;-81
2022/06/22 07:40:37;;;;;;;8.98;4.68;;;31.00;83.70;;;;;;5038527;28;20632;-79
2022/06/22 07:43:05;;;;;;;5.82;4.60;;;31.00;83.40;;;;;;5039683;28;20263;-79
2022/06/22 07:45:32;;;;;;;4.93;4.25;;;31.20;83.30;;;;;;5040357;28;20255;-80
2022/06/22 07:48:13;;;;;;;6.28;5.22;;;31.40;82.80;;;;;;5040935;28;20635;-81
2022/06/22 07:50:48;;;;;;;7.97;4.90;;;31.80;80.70;;;;;;5041170;28;20434;-81
2022/06/22 07:53:30;;;;;;;7.32;4.75;;;31.80;81.40;;;;;;5035780;28;20264;-78
2022/06/22 07:56:09;;;;;;;11.75;5.57;;;31.80;79.90;;;;;;5038514;28;20259;-81
2022/06/22 07:58:50;;;;;;;6.40;4.95;;;31.70;79.20;;;;;;5038276;28;20216;-80
2022/06/22 08:01:23;;;;;;;7.40;5.30;;;31.50;80.80;;;;;;5039404;28;20272;-82
2022/06/22 08:03:56;;;;;;;6.90;4.82;;;31.50;81.10;;;;;;5034903;28;20245;-80
2022/06/22 08:06:33;;;;;;;6.85;5.00;;;31.50;81.10;;;;;;5032590;28;20304;-80
2022/06/22 08:09:06;;;;;;;6.15;4.68;;;31.50;80.40;;;;;;5037919;28;20259;-81
2022/06/22 08:11:39;;;;;;;7.43;5.20;;;31.40;80.60;;;;;;5035739;28;20210;-81
2022/06/22 08:14:31;;;;;;;8.10;5.15;;;31.60;80.50;;;;;;5038073;28;20213;-81
2022/06/22 08:17:01;;;;;;;7.43;5.57;;;31.70;79.40;;;;;;5038207;28;20218;-80
2022/06/22 08:19:31;;;;;;;6.10;4.90;;;31.80;80.00;;;;;;5036341;28;20682;-80
2022/06/22 08:22:04;;;;;;;5.85;5.32;;;31.80;80.10;;;;;;5039448;28;20750;-81
2022/06/22 08:24:33;;;;;;;5.90;4.57;;;31.80;79.10;;;;;;5036557;28;20235;-83
2022/06/22 08:27:06;;;;;;;6.10;4.82;;;31.20;79.20;;;;;;5038589;28;20221;-82
2022/06/22 08:29:34;;;;;;;8.18;4.40;;;31.30;80.20;;;;;;5040049;28;20597;-81
2022/06/22 08:32:24;;;;;;;6.13;5.40;;;31.30;79.90;;;;;;5036356;28;20295;-80
2022/06/22 08:34:58;;;;;;;5.97;4.53;;;31.20;78.80;;;;;;5039965;28;20647;-82
2022/06/22 08:37:27;;;;;;;6.95;4.60;;;31.10;79.40;;;;;;5038612;28;20765;-84
2022/06/22 08:40:15;;;;;;;5.47;4.93;;;31.00;79.30;;;;;;5037030;28;20214;-82
2022/06/22 08:42:58;;;;;;;5.45;4.45;;;31.10;79.70;;;;;;5038001;28;20673;-83
2022/06/22 08:45:44;;;;;;;7.80;5.45;;;31.20;79.80;;;;;;5036708;28;20216;-82
2022/06/22 08:48:31;;;;;;;7.55;5.07;;;31.30;78.00;;;;;;5034800;28;20248;-81
2022/06/22 08:51:10;;;;;;;5.85;4.68;;;31.30;78.20;;;;;;5039437;28;20267;-82
2022/06/22 08:53:55;;;;;;;5.93;3.97;;;31.20;78.60;;;;;;5037554;28;20208;-81
2022/06/22 08:56:51;;;;;;;6.53;4.22;;;31.20;76.50;;;;;;5040061;28;20665;-80
2022/06/22 08:59:33;;;;;;;4.93;4.03;;;31.20;76.60;;;;;;5042319;28;20213;-81
2022/06/22 09:02:14;;;;;;;5.10;3.60;;;31.10;74.10;;;;;;5043177;28;20209;-81
2022/06/22 09:04:56;;;;;;;5.00;2.85;;;31.00;74.40;;;;;;5032425;28;20231;-81
2022/06/22 09:08:04;;;;;;;4.53;3.80;;;30.80;74.50;;;;;;5037395;28;20251;-80
2022/06/22 09:10:48;;;;;;;5.72;4.32;;;30.80;75.20;;;;;;5041786;28;20268;-82
2022/06/22 09:13:54;;;;;;;5.05;3.90;;;30.80;76.50;;;;;;5040903;28;20206;-85
2022/06/22 09:16:48;;;;;;;7.05;4.38;;;30.70;76.20;;;;;;5041001;28;20288;-83
2022/06/22 09:19:39;;;;;;;4.75;3.90;;;30.60;75.20;;;;;;5041598;28;20767;-82
2022/06/22 09:22:43;;;;;;;6.00;4.70;;;30.50;73.70;;;;;;5041136;28;20220;-82
2022/06/22 09:25:27;;;;;;;6.38;4.32;;;30.20;73.60;;;;;;5042575;28;20740;-82
2022/06/22 09:28:16;;;;;;;5.65;4.20;;;30.10;75.60;;;;;;5040249;28;20232;-81
2022/06/22 09:31:04;;;;;;;6.30;4.05;;;30.00;76.40;;;;;;5041774;28;20560;-84
2022/06/22 09:33:40;;;;;;;6.45;4.32;;;29.90;76.40;;;;;;5041276;28;20240;-79
2022/06/22 09:36:19;;;;;;;4.90;4.00;;;29.60;74.90;;;;;;5040012;28;20275;-84
2022/06/22 09:39:08;;;;;;;5.70;3.92;;;29.30;76.30;;;;;;5037951;28;20206;-81
2022/06/22 09:41:56;;;;;;;5.82;4.45;;;29.00;79.30;;;;;;5038172;28;20210;-83
2022/06/22 09:44:53;;;;;;;9.50;5.10;;;28.80;78.80;;;;;;5041812;28;20227;-84
2022/06/22 09:47:40;;;;;;;6.85;4.10;;;28.50;79.10;;;;;;5029392;28;20225;-82
2022/06/22 09:50:30;;;;;;;6.80;4.07;;;28.40;79.30;;;;;;5030626;28;20704;-81
2022/06/22 09:53:09;;;;;;;5.72;4.10;;;28.40;79.10;;;;;;5031840;28;20218;-77
2022/06/22 09:56:27;;;;;;;7.97;4.85;;;28.40;79.00;;;;;;5030429;28;20573;-82
2022/06/22 09:59:15;;;;;;;6.68;4.00;;;28.60;79.40;;;;;;5029707;28;20661;-80
2022/06/22 10:02:08;;;;;;;7.80;3.80;;;28.60;80.10;;;;;;5038825;28;20206;-83
2022/06/22 10:04:40;;;;;;;7.18;3.90;;;28.60;78.70;;;;;;5036851;28;20356;-81
2022/06/22 10:07:28;;;;;;;4.75;3.88;;;28.70;77.60;;;;;;5035123;28;20622;-81
2022/06/22 10:10:23;;;;;;;9.32;4.00;;;28.80;77.20;;;;;;5039542;28;20208;-82
2022/06/22 10:13:11;;;;;;;6.28;3.60;;;28.70;75.80;;;;;;5044153;28;20213;-82
2022/06/22 10:16:08;;;;;;;4.10;3.47;;;28.60;77.50;;;;;;5040099;28;20244;-82
2022/06/22 10:18:58;;;;;;;6.32;3.08;;;28.40;78.10;;;;;;5040001;28;20599;-80
2022/06/22 10:21:46;;;;;;;4.97;3.45;;;28.40;78.60;;;;;;5040299;28;20266;-81
2022/06/22 10:24:54;;;;;;;5.15;3.13;;;28.50;78.90;;;;;;5040109;28;20278;-81
2022/06/22 10:27:39;;;;;;;5.53;3.28;;;28.50;76.60;;;;;;5038610;28;20225;-82
2022/06/22 10:30:19;;;;;;;4.78;2.65;;;28.30;74.40;;;;;;5038495;28;20213;-84
2022/06/22 10:33:20;;;;;;;4.78;2.67;;;28.30;72.30;;;;;;5037270;28;20221;-82
2022/06/22 10:36:10;;;;;;;3.75;2.70;;;28.30;74.30;;;;;;5037787;28;20210;-80
2022/06/22 10:39:15;;;;;;;4.68;2.70;;;28.20;75.10;;;;;;5037063;28;20635;-83
2022/06/22 10:45:08;;;;;;;3.40;2.35;;;28.10;74.50;;;;;;5041044;28;20210;-81
2022/06/22 10:48:05;;;;;;;4.38;2.78;;;28.10;76.10;;;;;;5036852;28;20248;-81
2022/06/22 10:50:47;;;;;;;5.22;2.80;;;28.00;75.70;;;;;;5038452;28;20224;-82
2022/06/22 10:53:35;;;;;;;5.32;3.25;;;27.80;76.40;;;;;;5035666;28;20323;-82
2022/06/22 10:56:37;;;;;;;5.50;2.90;;;27.90;76.00;;;;;;5036437;28;20214;-82
2022/06/22 10:59:44;;;;;;;4.25;2.47;;;28.00;76.20;;;;;;5037962;28;20267;-82
2022/06/22 11:03:04;;;;;;;3.75;2.60;;;28.20;75.10;;;;;;5031146;28;20217;-85
2022/06/22 11:05:35;;;;;;;5.45;3.10;;;28.30;74.00;;;;;;5038856;28;20263;-79
2022/06/22 11:08:52;;;;;;;5.53;2.85;;;28.20;74.20;;;;;;5037234;28;20295;-81
2022/06/22 11:11:56;;;;;;;2.78;2.03;;;28.20;72.80;;;;;;5032185;28;20217;-80
2022/06/22 11:14:47;;;;;;;3.70;2.53;;;28.10;74.00;;;;;;5040273;28;20212;-81
2022/06/22 11:17:54;;;;;;;3.05;2.20;;;28.10;73.30;;;;;;5039234;28;20271;-83
2022/06/22 11:20:33;;;;;;;3.35;1.90;;;28.10;72.20;;;;;;5037138;28;20233;-81
2022/06/22 11:23:11;;;;;;;3.85;1.80;;;28.10;70.20;;;;;;5035992;28;20379;-81
2022/06/22 11:32:49;;;;;;;3.75;2.13;;;28.10;70.80;;;;;;5036866;28;20299;-82
2022/06/22 11:35:34;;;;;;;3.55;2.47;;;28.20;70.30;;;;;;5029980;28;20225;-82
2022/06/22 11:38:04;;;;;;;4.03;2.17;;;28.30;72.20;;;;;;5038027;28;20264;-83
2022/06/22 11:40:33;;;;;;;2.40;2.00;;;28.30;73.60;;;;;;5036276;28;20213;-83
2022/06/22 11:43:12;;;;;;;3.95;2.20;;;28.50;73.60;;;;;;5036077;28;20463;-83
2022/06/22 11:46:15;;;;;;;3.15;1.67;;;28.60;71.60;;;;;;5036290;28;20221;-81
2022/06/22 11:49:21;;;;;;;4.50;2.13;;;28.60;70.90;;;;;;5038638;28;20541;-82
2022/06/22 11:52:19;;;;;;;4.18;2.20;;;28.80;70.90;;;;;;5038479;28;20229;-83
2022/06/22 11:55:10;;;;;;;2.75;1.85;;;28.90;70.40;;;;;;5038861;28;20217;-82
2022/06/22 11:57:51;;;;;;;3.95;2.10;;;28.90;69.50;;;;;;5038836;28;20216;-85
2022/06/22 12:00:21;;;;;;;3.53;2.13;;;29.00;70.30;;;;;;5037601;28;20271;-84
2022/06/22 12:02:54;;;;;;;5.10;2.20;;;29.20;70.70;;;;;;5036352;28;20712;-83
2022/06/22 12:05:48;;;;;;;3.45;1.75;;;29.30;68.90;;;;;;5035424;28;20253;-82
2022/06/22 12:08:15;;;;;;;3.03;1.88;;;29.40;68.70;;;;;;5036757;28;20233;-82
2022/06/22 12:11:05;;;;;;;3.70;1.70;;;29.30;65.90;;;;;;5037554;28;20212;-83
2022/06/22 12:15:04;;;;;;;8.32;2.40;;;29.30;65.70;;;;;;5041386;28;20247;-83
2022/06/22 12:16:51;;;;;;;4.72;1.90;;;29.40;68.10;;;;;;5038760;28;20660;-82
2022/06/22 12:19:52;;;;;;;2.30;1.70;;;29.40;68.50;;;;;;5038233;28;20223;-81
2022/06/22 12:22:24;;;;;;;3.30;1.55;;;29.50;67.80;;;;;;5039530;28;20219;-82
2022/06/22 12:25:26;;;;;;;3.85;1.45;;;29.50;66.20;;;;;;5039453;28;20200;-81
2022/06/22 12:28:11;;;;;;;2.53;2.00;;;29.50;65.90;;;;;;5037987;28;20271;-81
2022/06/22 12:30:41;;;;;;;3.67;2.10;;;29.60;67.00;;;;;;5041248;28;20213;-80
2022/06/22 12:33:17;;;;;;;3.47;2.28;;;29.60;66.00;;;;;;5042627;28;20217;-79
2022/06/22 12:36:08;;;;;;;2.47;1.60;;;29.60;67.00;;;;;;5040373;28;20259;-80
2022/06/22 12:38:52;;;;;;;3.25;1.52;;;29.60;66.70;;;;;;5040620;28;20222;-81
2022/06/22 12:41:55;;;;;;;3.88;1.48;;;29.60;67.50;;;;;;5068911;28;20616;-82
2022/06/22 12:44:47;;;;;;;2.40;1.95;;;29.80;67.00;;;;;;5041196;28;20213;-81
2022/06/22 12:47:53;;;;;;;3.15;2.13;;;29.90;66.30;;;;;;5039492;28;20884;-81
2022/06/22 12:50:57;;;;;;;4.13;2.50;;;29.80;65.70;;;;;;5040175;28;20229;-80
2022/06/22 12:53:32;;;;;;;2.28;2.03;;;29.90;66.40;;;;;;5041690;28;20205;-81
2022/06/22 12:56:06;;;;;;;3.38;2.00;;;29.90;68.00;;;;;;5041740;28;20213;-80
2022/06/22 12:58:55;;;;;;;2.38;1.73;;;30.00;68.30;;;;;;5041655;28;20213;-80
2022/06/22 13:01:23;;;;;;;3.55;1.92;;;30.00;67.30;;;;;;5074473;28;20205;-80
2022/06/22 13:04:02;;;;;;;3.33;1.85;;;29.90;66.80;;;;;;5041562;28;20240;-81
2022/06/22 13:06:31;;;;;;;2.03;1.70;;;29.90;67.90;;;;;;5035786;28;20253;-82
2022/06/22 13:08:58;;;;;;;4.97;2.10;;;29.90;67.80;;;;;;5039218;28;20605;-81
2022/06/22 13:11:28;;;;;;;4.82;2.05;;;30.00;66.20;;;;;;5045564;28;20563;-80
2022/06/22 13:14:13;;;;;;;4.97;1.90;;;30.00;65.50;;;;;;5040261;28;20260;-82
2022/06/22 13:16:45;;;;;;;4.30;2.25;;;30.00;63.50;;;;;;5042375;28;20681;-83
2022/06/22 13:19:21;;;;;;;2.38;2.00;;;30.00;63.30;;;;;;5031052;28;20276;-84
2022/06/22 13:22:00;;;;;;;5.95;2.00;;;30.00;63.60;;;;;;5037638;28;20222;-83
2022/06/22 13:24:33;;;;;;;2.70;2.00;;;30.00;64.80;;;;;;5042043;28;20918;-81
2022/06/22 13:27:09;;;;;;;1.85;1.70;;;30.00;64.70;;;;;;5030796;28;20264;-82
2022/06/22 13:29:49;;;;;;;4.82;1.90;;;30.10;65.90;;;;;;5030848;28;20271;-80
2022/06/22 13:32:17;;;;;;;2.97;1.92;;;30.20;65.10;;;;;;5030989;28;20313;-81
2022/06/22 13:35:12;;;;;;;3.30;1.90;;;30.20;64.00;;;;;;5042019;28;20224;-79
2022/06/22 13:38:17;;;;;;;2.60;1.60;;;30.10;60.90;;;;;;5040828;28;20228;-81
2022/06/22 13:40:53;;;;;;;3.15;1.60;;;30.00;64.70;;;;;;5039232;28;20276;-82
2022/06/22 13:43:29;;;;;;;1.88;1.50;;;30.00;64.00;;;;;;5038163;28;20256;-81
2022/06/22 13:46:03;;;;;;;3.67;1.85;;;30.20;62.90;;;;;;5039362;28;20766;-81
2022/06/22 13:48:44;;;;;;;5.70;1.60;;;30.20;62.00;;;;;;5040014;28;20279;-83
2022/06/22 13:51:28;;;;;;;3.03;1.60;;;30.10;61.40;;;;;;5042152;28;20215;-81
2022/06/22 13:54:33;;;;;;;2.95;1.50;;;30.00;62.40;;;;;;5042742;28;20653;-81
2022/06/22 13:57:12;;;;;;;2.55;1.60;;;30.00;61.90;;;;;;5045639;28;20212;-81
2022/06/22 13:59:52;;;;;;;3.78;1.70;;;30.10;62.20;;;;;;5050388;28;20240;-82
2022/06/22 14:02:40;;;;;;;2.20;1.42;;;30.10;62.80;;;;;;5049245;28;20204;-81
2022/06/22 14:05:19;;;;;;;4.03;1.90;;;30.10;63.00;;;;;;5041956;28;20221;-84
2022/06/22 14:08:19;;;;;;;2.33;1.35;;;30.10;62.30;;;;;;5040240;28;20669;-80